createdAt,value
2022-08-25T00:01:41.617Z,15.10
2022-08-25T00:06:46.460Z,15.50
2022-08-25T00:11:51.699Z,15.70
2022-08-25T00:16:56.064Z,15.40
2022-08-25T00:22:01.182Z,14.20
2022-08-25T00:27:05.135Z,12.80
2022-08-25T00:32:09.875Z,14.70
2022-08-25T00:37:13.326Z,12.10
2022-08-25T00:42:16.537Z,13.50
2022-08-25T00:47:20.224Z,12.60
2022-08-25T00:52:28.343Z,13.60
2022-08-25T00:57:37.959Z,14.20
2022-08-25T01:02:41.527Z,12.20
2022-08-25T01:07:45.653Z,15.40
2022-08-25T01:12:50.573Z,11.90
2022-08-25T01:17:57.618Z,13.10
2022-08-25T01:23:03.832Z,14.40
2022-08-25T01:28:07.471Z,11.00
2022-08-25T01:33:12.495Z,12.10
2022-08-25T01:38:16.433Z,15.70
2022-08-25T01:43:37.653Z,12.20
2022-08-25T01:48:41.095Z,10.80
2022-08-25T01:53:44.483Z,9.90
2022-08-25T01:58:50.266Z,11.60
2022-08-25T02:03:56.095Z,9.30
2022-08-25T02:09:15.881Z,11.30
2022-08-25T02:14:20.274Z,10.00
2022-08-25T02:19:26.170Z,11.40
2022-08-25T02:24:29.571Z,12.50
2022-08-25T02:29:34.104Z,12.40
2022-08-25T02:34:40.123Z,13.10
2022-08-25T02:39:43.299Z,11.10
2022-08-25T02:44:46.857Z,7.60
2022-08-25T02:49:50.137Z,9.50
2022-08-25T02:54:53.418Z,9.50
2022-08-25T02:59:58.420Z,11.20
2022-08-25T03:05:01.700Z,12.10
2022-08-25T03:10:09.655Z,10.70
2022-08-25T03:15:19.375Z,10.10
2022-08-25T03:20:28.151Z,15.80
2022-08-25T03:25:49.748Z,12.40
2022-08-25T03:30:56.253Z,14.10
2022-08-25T03:36:00.036Z,12.00
2022-08-25T03:41:12.145Z,11.50
2022-08-25T03:46:20.212Z,13.80
2022-08-25T03:51:27.795Z,12.00
2022-08-25T03:56:31.731Z,12.40
2022-08-25T04:01:36.940Z,13.90
2022-08-25T04:06:41.884Z,15.20
2022-08-25T04:11:45.110Z,11.70
2022-08-25T04:16:48.547Z,11.70
2022-08-25T04:21:56.685Z,14.60
2022-08-25T04:27:00.640Z,11.90
2022-08-25T04:32:04.289Z,13.00
2022-08-25T04:37:08.164Z,12.80
2022-08-25T04:42:11.846Z,14.10
2022-08-25T04:47:15.072Z,11.50
2022-08-25T04:52:18.257Z,11.50
2022-08-25T04:57:21.776Z,13.50
2022-08-25T05:02:25.590Z,11.00
2022-08-25T05:07:28.899Z,11.70
2022-08-25T05:12:34.572Z,11.00
2022-08-25T05:17:39.103Z,14.60
2022-08-25T05:22:47.056Z,25.20
2022-08-25T05:27:50.681Z,17.70
2022-08-25T05:32:53.859Z,16.10
2022-08-25T05:37:57.686Z,14.80
2022-08-25T05:43:00.828Z,17.70
2022-08-25T05:48:04.323Z,13.30
2022-08-25T05:53:07.640Z,13.80
2022-08-25T05:58:11.347Z,28.90
2022-08-25T06:03:18.496Z,18.40
2022-08-25T06:08:21.891Z,15.90
2022-08-25T06:13:28.744Z,16.60
2022-08-25T06:18:32.442Z,16.30
2022-08-25T06:23:37.371Z,12.70
2022-08-25T06:28:41.283Z,13.00
2022-08-25T06:33:45.279Z,11.60
2022-08-25T06:38:48.933Z,13.40
2022-08-25T06:43:56.723Z,10.80
2022-08-25T06:49:09.933Z,13.90
2022-08-25T06:54:13.357Z,10.60
2022-08-25T06:59:18.064Z,12.30
2022-08-25T07:04:21.672Z,12.40
2022-08-25T07:09:24.905Z,12.90
2022-08-25T07:14:28.697Z,11.50
2022-08-25T07:19:31.977Z,13.70
2022-08-25T07:24:35.243Z,11.60
2022-08-25T07:29:42.193Z,12.70
2022-08-25T07:35:04.527Z,9.50
2022-08-25T07:40:08.825Z,10.70
2022-08-25T07:45:13.804Z,11.10
2022-08-25T07:50:19.157Z,11.80
2022-08-25T07:55:24.789Z,8.70
2022-08-25T08:00:30.779Z,13.00
2022-08-25T08:05:35.462Z,12.40
2022-08-25T08:11:03.320Z,9.90
2022-08-25T08:16:13.407Z,9.70
2022-08-25T08:21:21.083Z,8.60
2022-08-25T08:26:36.460Z,10.50
2022-08-25T08:31:49.034Z,10.60
2022-08-25T08:36:53.387Z,9.20
2022-08-25T08:42:53.460Z,11.80
2022-08-25T08:48:11.743Z,12.80
2022-08-25T08:53:27.759Z,12.70
2022-08-25T08:58:42.306Z,11.00
2022-08-25T09:04:03.568Z,10.50
2022-08-25T09:09:11.918Z,10.00
2022-08-25T09:14:36.476Z,9.90
2022-08-25T09:20:04.026Z,15.90
2022-08-25T09:25:52.509Z,13.40
2022-08-25T09:31:29.821Z,13.50
2022-08-25T09:36:37.678Z,15.10
2022-08-25T09:41:46.054Z,11.70
2022-08-25T09:47:02.472Z,11.40
2022-08-25T09:52:33.418Z,10.60
2022-08-25T09:57:44.450Z,12.60
2022-08-25T10:03:12.848Z,12.20
2022-08-25T10:08:32.561Z,12.40
2022-08-25T10:13:49.239Z,12.70
2022-08-25T10:19:02.679Z,11.60
2022-08-25T10:24:06.873Z,11.40
2022-08-25T10:29:34.853Z,9.00
2022-08-25T10:34:51.743Z,13.20
2022-08-25T10:40:07.958Z,14.80
2022-08-25T10:45:40.979Z,13.40
2022-08-25T10:51:02.292Z,13.70
2022-08-25T10:56:12.618Z,16.00
2022-08-25T11:01:41.267Z,13.60
2022-08-25T11:07:08.078Z,14.10
2022-08-25T11:12:12.104Z,16.90
2022-08-25T11:17:32.799Z,13.80
2022-08-25T11:22:43.872Z,13.70
2022-08-25T11:28:06.875Z,14.90
2022-08-25T11:33:19.733Z,13.20
2022-08-25T11:38:48.544Z,12.10
2022-08-25T11:43:52.417Z,16.80
2022-08-25T11:48:59.546Z,17.60
2022-08-25T11:54:27.659Z,13.90
2022-08-25T11:59:52.638Z,18.90
2022-08-25T12:04:56.721Z,19.70
2022-08-25T12:10:06.081Z,15.20
2022-08-25T12:15:21.485Z,18.00
2022-08-25T12:20:53.879Z,19.30
2022-08-25T12:26:01.832Z,20.20
2022-08-25T12:31:18.630Z,14.80
2022-08-25T12:36:34.553Z,16.70
2022-08-25T12:42:03.780Z,16.00
2022-08-25T12:47:32.655Z,15.50
2022-08-25T12:52:38.756Z,18.30
2022-08-25T12:57:58.954Z,17.90
2022-08-25T13:03:26.394Z,15.90
2022-08-25T13:08:51.627Z,18.90
2022-08-25T13:14:14.103Z,15.40
2022-08-25T13:19:21.159Z,16.00
2022-08-25T13:24:32.436Z,17.80
2022-08-25T13:30:03.845Z,17.00
2022-08-25T13:35:08.897Z,18.10
2022-08-25T13:40:28.117Z,17.70
2022-08-25T13:45:41.466Z,17.50
2022-08-25T13:50:50.177Z,16.40
2022-08-25T13:55:59.122Z,17.30
2022-08-25T14:01:22.721Z,15.60
2022-08-25T14:06:33.077Z,15.80
2022-08-25T14:11:45.120Z,17.30
2022-08-25T14:17:11.992Z,18.00
2022-08-25T14:22:26.774Z,14.40
2022-08-25T14:27:30.062Z,17.80
2022-08-25T14:32:33.368Z,16.70
2022-08-25T14:37:37.117Z,15.50
2022-08-25T14:42:40.686Z,15.10
2022-08-25T14:47:49.769Z,15.40
2022-08-25T14:52:53.469Z,20.10
2022-08-25T14:58:01.658Z,18.30
2022-08-25T15:03:05.929Z,16.20
2022-08-25T15:08:33.112Z,15.50
2022-08-25T15:13:37.069Z,19.20
2022-08-25T15:18:40.380Z,17.60
2022-08-25T15:23:45.552Z,13.60
2022-08-25T15:28:50.707Z,16.80
2022-08-25T15:33:53.874Z,17.70
2022-08-25T15:38:57.657Z,17.20
2022-08-25T15:44:00.918Z,19.50
2022-08-25T15:49:05.232Z,18.10
2022-08-25T15:54:14.470Z,23.50
2022-08-25T15:59:17.697Z,16.70
2022-08-25T16:04:28.155Z,19.90
2022-08-25T16:09:31.665Z,21.80
2022-08-25T16:14:35.033Z,19.10
2022-08-25T16:19:38.586Z,17.30
2022-08-25T16:24:46.856Z,17.10
2022-08-25T16:29:50.102Z,18.60
2022-08-25T16:34:53.331Z,18.60
2022-08-25T16:39:59.968Z,25.30
2022-08-25T16:45:05.301Z,19.50
2022-08-25T16:50:11.628Z,21.40
2022-08-25T16:55:16.031Z,19.40
2022-08-25T17:00:27.103Z,22.70
2022-08-25T17:05:31.587Z,16.70
2022-08-25T17:10:40.104Z,15.60
2022-08-25T17:15:52.396Z,16.20
2022-08-25T17:21:04.523Z,23.90
2022-08-25T17:26:13.015Z,14.40
2022-08-25T17:31:18.819Z,15.70
2022-08-25T17:36:27.215Z,15.80
2022-08-25T17:41:30.814Z,19.10
2022-08-25T17:46:34.119Z,17.70
2022-08-25T17:51:37.633Z,17.90
2022-08-25T17:56:41.196Z,13.50
2022-08-25T18:01:44.710Z,14.60
2022-08-25T18:06:48.742Z,18.60
2022-08-25T18:11:52.811Z,17.90
2022-08-25T18:16:56.957Z,16.00
2022-08-25T18:22:04.574Z,18.10
2022-08-25T18:27:07.939Z,14.50
2022-08-25T18:32:12.448Z,15.70
2022-08-25T18:37:34.228Z,15.60
2022-08-25T18:42:37.558Z,19.30
2022-08-25T18:47:42.037Z,20.10
2022-08-25T18:52:45.912Z,23.00
2022-08-25T18:57:49.376Z,18.20
2022-08-25T19:02:55.711Z,20.60
2022-08-25T19:08:02.932Z,19.00
2022-08-25T19:13:08.160Z,17.10
2022-08-25T19:18:13.285Z,21.80
2022-08-25T19:23:17.306Z,13.30
2022-08-25T19:28:20.683Z,19.00
2022-08-25T19:33:42.520Z,16.50
2022-08-25T19:38:47.520Z,19.20
2022-08-25T19:43:56.782Z,13.80
2022-08-25T19:49:07.623Z,17.40
2022-08-25T19:54:17.203Z,18.40
2022-08-25T19:59:20.573Z,19.10
2022-08-25T20:04:26.164Z,17.80
2022-08-25T20:09:39.478Z,19.50
2022-08-25T20:14:44.825Z,17.80
2022-08-25T20:19:48.485Z,20.40
2022-08-25T20:24:58.769Z,20.20
2022-08-25T20:30:04.586Z,15.40
2022-08-25T20:35:13.071Z,19.70
2022-08-25T20:40:25.445Z,19.30
2022-08-25T20:45:29.258Z,21.00
2022-08-25T20:50:33.968Z,18.60
2022-08-25T20:55:42.525Z,20.70
2022-08-25T21:00:47.571Z,20.30
2022-08-25T21:05:54.022Z,20.60
2022-08-25T21:10:57.677Z,23.60
2022-08-25T21:16:02.936Z,23.70
2022-08-25T21:21:12.685Z,19.80
2022-08-25T21:26:22.428Z,21.60
2022-08-25T21:31:27.000Z,22.80
2022-08-25T21:36:31.689Z,24.50
2022-08-25T21:41:37.356Z,20.20
2022-08-25T21:46:53.806Z,22.90
2022-08-25T21:52:02.260Z,25.20
2022-08-25T21:57:06.773Z,20.20
2022-08-25T22:02:11.873Z,20.00
2022-08-25T22:07:15.260Z,23.30
2022-08-25T22:12:19.074Z,21.00
2022-08-25T22:17:24.375Z,24.10
2022-08-25T22:22:28.125Z,20.10
2022-08-25T22:27:32.041Z,25.30
2022-08-25T22:32:35.155Z,19.60
2022-08-25T22:37:38.606Z,24.00
2022-08-25T22:42:47.807Z,22.30
2022-08-25T22:47:52.581Z,21.80
2022-08-25T22:52:55.879Z,25.90
2022-08-25T22:57:59.224Z,22.30
2022-08-25T23:03:04.169Z,23.30
2022-08-25T23:08:10.382Z,16.00
2022-08-25T23:13:34.149Z,22.70
2022-08-25T23:18:43.624Z,21.90
2022-08-25T23:23:48.367Z,24.10
2022-08-25T23:28:52.476Z,22.50
2022-08-25T23:33:59.100Z,21.30
2022-08-25T23:39:02.643Z,28.80
2022-08-25T23:44:11.537Z,22.20
2022-08-25T23:49:18.818Z,28.40
2022-08-25T23:54:22.516Z,23.60
2022-08-25T23:59:35.973Z,26.70
